createdAt,value
2018-11-04T00:01:29.431Z,22.70
2018-11-04T00:03:31.579Z,23.60
2018-11-04T00:05:33.722Z,25.00
2018-11-04T00:07:35.917Z,24.03
2018-11-04T00:09:38.051Z,25.00
2018-11-04T00:11:40.294Z,25.07
2018-11-04T00:13:42.495Z,24.03
2018-11-04T00:15:45.778Z,24.63
2018-11-04T00:17:47.928Z,24.27
2018-11-04T00:19:50.092Z,22.80
2018-11-04T00:21:52.274Z,23.33
2018-11-04T00:23:54.515Z,23.90
2018-11-04T00:25:56.644Z,23.93
2018-11-04T00:27:58.902Z,25.90
2018-11-04T00:30:01.213Z,23.33
2018-11-04T00:32:03.274Z,25.40
2018-11-04T00:34:05.513Z,23.20
2018-11-04T00:36:08.459Z,25.53
2018-11-04T00:38:10.672Z,26.77
2018-11-04T00:40:12.938Z,24.10
2018-11-04T00:42:15.257Z,26.63
2018-11-04T00:44:17.490Z,25.70
2018-11-04T00:46:19.687Z,27.50
2018-11-04T00:48:21.943Z,25.60
2018-11-04T00:50:24.136Z,25.87
2018-11-04T00:52:26.326Z,27.20
2018-11-04T00:54:28.508Z,27.60
2018-11-04T00:56:30.721Z,26.00
2018-11-04T00:58:32.918Z,28.93
2018-11-04T01:00:35.086Z,26.90
2018-11-04T01:02:37.262Z,27.27
2018-11-04T01:04:39.441Z,28.43
2018-11-04T01:06:41.674Z,27.83
2018-11-04T01:08:43.909Z,27.13
2018-11-04T01:10:46.008Z,29.33
2018-11-04T01:12:48.241Z,27.17
2018-11-04T01:14:50.450Z,28.90
2018-11-04T01:16:52.671Z,28.33
2018-11-04T01:18:54.846Z,30.83
2018-11-04T01:20:57.065Z,30.03
2018-11-04T01:22:59.361Z,33.40
2018-11-04T01:25:01.602Z,33.67
2018-11-04T01:27:03.954Z,32.33
2018-11-04T01:29:06.285Z,32.70
2018-11-04T01:31:08.487Z,32.23
2018-11-04T01:33:10.724Z,33.60
2018-11-04T01:35:12.983Z,32.27
2018-11-04T01:37:15.227Z,33.80
2018-11-04T01:39:17.444Z,34.07
2018-11-04T01:41:19.653Z,32.77
2018-11-04T01:43:21.816Z,31.77
2018-11-04T01:45:24.019Z,33.67
2018-11-04T01:47:26.234Z,34.27
2018-11-04T01:49:28.422Z,33.77
2018-11-04T01:51:30.619Z,33.40
2018-11-04T01:53:32.847Z,34.90
2018-11-04T01:55:35.037Z,32.77
2018-11-04T01:57:37.420Z,32.87
2018-11-04T01:59:39.621Z,33.27
2018-11-04T02:01:41.867Z,34.13
2018-11-04T02:03:44.119Z,34.77
2018-11-04T02:05:46.294Z,34.50
2018-11-04T02:07:48.499Z,34.37
2018-11-04T02:09:50.672Z,35.67
2018-11-04T02:11:52.866Z,36.37
2018-11-04T02:13:55.059Z,33.50
2018-11-04T02:15:57.255Z,35.20
2018-11-04T02:17:59.430Z,35.40
2018-11-04T02:20:01.657Z,35.47
2018-11-04T02:22:03.865Z,36.17
2018-11-04T02:24:06.091Z,35.60
2018-11-04T02:26:08.306Z,34.73
2018-11-04T02:28:10.596Z,34.87
2018-11-04T02:30:14.766Z,32.67
2018-11-04T02:32:17.045Z,32.13
2018-11-04T02:34:19.243Z,33.60
2018-11-04T02:36:21.423Z,35.30
2018-11-04T02:38:23.674Z,31.87
2018-11-04T02:40:25.902Z,32.50
2018-11-04T02:42:28.112Z,33.00
2018-11-04T02:44:30.287Z,36.87
2018-11-04T02:46:32.471Z,34.00
2018-11-04T02:48:34.939Z,36.87
2018-11-04T02:50:37.128Z,33.80
2018-11-04T02:52:39.661Z,34.20
2018-11-04T02:54:41.851Z,35.77
2018-11-04T02:56:44.249Z,35.73
2018-11-04T02:58:46.429Z,35.47
2018-11-04T03:00:48.619Z,35.20
2018-11-04T03:02:50.806Z,35.70
2018-11-04T03:04:52.990Z,35.07
2018-11-04T03:06:55.209Z,34.37
2018-11-04T03:08:57.439Z,34.50
2018-11-04T03:10:59.674Z,33.67
2018-11-04T03:13:01.825Z,34.07
2018-11-04T03:15:04.106Z,33.30
2018-11-04T03:17:06.281Z,35.83
2018-11-04T03:19:08.487Z,34.13
2018-11-04T03:21:10.678Z,34.60
2018-11-04T03:23:12.856Z,33.13
2018-11-04T03:25:15.033Z,35.10
2018-11-04T03:27:17.261Z,35.97
2018-11-04T03:29:26.525Z,36.10
2018-11-04T03:31:28.735Z,34.53
2018-11-04T03:33:30.973Z,35.03
2018-11-04T03:35:33.137Z,33.93
2018-11-04T03:37:35.362Z,35.93
2018-11-04T03:39:37.501Z,33.67
2018-11-04T03:41:40.306Z,34.87
2018-11-04T03:59:37.179Z,32.83
2018-11-04T04:01:39.273Z,34.77
2018-11-04T04:03:41.400Z,34.57
2018-11-04T04:05:43.524Z,34.33
2018-11-04T04:07:45.678Z,37.33
2018-11-04T04:09:47.902Z,36.40
2018-11-04T04:11:50.050Z,33.27
2018-11-04T04:13:52.190Z,36.20
2018-11-04T04:15:55.051Z,35.57
2018-11-04T04:17:57.280Z,34.07
2018-11-04T04:19:59.478Z,34.40
2018-11-04T04:22:01.722Z,32.83
2018-11-04T04:24:03.988Z,31.60
2018-11-04T04:26:06.677Z,30.97
2018-11-04T04:28:08.897Z,33.30
2018-11-04T04:30:11.482Z,33.17
2018-11-04T04:32:13.667Z,33.67
2018-11-04T04:34:15.857Z,35.47
2018-11-04T04:36:18.032Z,31.60
2018-11-04T04:38:20.339Z,32.83
2018-11-04T04:40:22.531Z,31.57
2018-11-04T04:42:24.712Z,31.30
2018-11-04T04:44:26.900Z,31.20
2018-11-04T04:46:29.290Z,31.23
2018-11-04T04:48:31.522Z,32.57
2018-11-04T04:50:33.775Z,31.93
2018-11-04T04:52:35.971Z,31.50
2018-11-04T04:54:38.132Z,33.47
2018-11-04T04:56:40.294Z,31.17
2018-11-04T04:58:42.490Z,32.40
2018-11-04T05:00:44.675Z,30.97
2018-11-04T05:02:46.854Z,31.30
2018-11-04T05:04:49.079Z,29.30
2018-11-04T05:06:51.293Z,31.77
2018-11-04T05:08:53.472Z,33.67
2018-11-04T05:10:59.586Z,31.97
2018-11-04T05:13:01.781Z,35.50
2018-11-04T05:15:17.658Z,33.27
2018-11-04T05:17:19.821Z,34.43
2018-11-04T05:19:22.010Z,35.20
2018-11-04T05:21:24.221Z,36.63
2018-11-04T05:57:40.383Z,33.93
2018-11-04T05:59:42.614Z,34.47
2018-11-04T06:01:44.816Z,34.90
2018-11-04T06:03:47.004Z,34.40
2018-11-04T06:05:49.135Z,32.57
2018-11-04T06:07:51.277Z,34.50
2018-11-04T06:12:31.163Z,37.57
2018-11-04T06:14:33.318Z,36.33
2018-11-04T06:16:35.458Z,35.70
2018-11-04T06:18:37.695Z,35.67
2018-11-04T06:20:39.870Z,34.83
2018-11-04T06:22:42.995Z,37.20
2018-11-04T06:24:45.162Z,36.03
2018-11-04T06:26:47.531Z,34.73
2018-11-04T06:28:49.666Z,36.23
2018-11-04T06:30:51.804Z,38.33
2018-11-04T06:32:53.983Z,35.30
2018-11-04T06:34:56.179Z,53.77
2018-11-04T06:36:58.334Z,43.20
2018-11-04T06:39:00.580Z,55.07
2018-11-04T06:41:02.759Z,40.47
2018-11-04T06:43:04.942Z,36.77
2018-11-04T06:45:07.751Z,39.60
2018-11-04T06:47:09.928Z,36.73
2018-11-04T06:49:12.041Z,37.20
2018-11-04T06:51:14.249Z,39.00
2018-11-04T06:53:16.406Z,37.97
2018-11-04T06:55:18.599Z,36.87
2018-11-04T06:57:20.778Z,39.80
2018-11-04T06:59:22.950Z,41.10
2018-11-04T07:01:25.180Z,42.87
2018-11-04T07:03:27.330Z,41.53
2018-11-04T07:05:29.467Z,45.07
2018-11-04T07:07:31.652Z,44.50
2018-11-04T07:09:33.872Z,39.20
2018-11-04T07:11:36.117Z,41.67
2018-11-04T07:13:38.365Z,42.03
2018-11-04T07:18:18.814Z,41.80
2018-11-04T07:20:20.964Z,42.53
2018-11-04T07:22:23.161Z,43.07
2018-11-04T07:24:25.375Z,44.10
2018-11-04T07:26:27.542Z,43.90
2018-11-04T07:28:29.724Z,43.60
2018-11-04T07:30:36.547Z,40.93
2018-11-04T07:32:38.782Z,43.00
2018-11-04T07:34:40.947Z,44.80
2018-11-04T07:36:43.115Z,42.57
2018-11-04T07:38:45.275Z,42.90
2018-11-04T07:40:47.491Z,44.77
2018-11-04T07:48:06.031Z,44.30
2018-11-04T07:50:10.126Z,44.67
2018-11-04T07:52:12.476Z,43.47
2018-11-04T07:54:14.662Z,46.23
2018-11-04T07:56:17.006Z,46.50
2018-11-04T07:58:19.224Z,45.43
2018-11-04T08:00:21.437Z,43.90
2018-11-04T08:02:23.733Z,45.07
2018-11-04T08:04:25.891Z,45.40
2018-11-04T08:09:06.776Z,45.23
2018-11-04T08:42:44.943Z,47.70
2018-11-04T08:45:09.871Z,49.03
2018-11-04T08:47:12.036Z,45.20
2018-11-04T10:30:34.550Z,41.13
2018-11-04T10:32:36.698Z,41.77
2018-11-04T10:34:38.782Z,38.20
2018-11-04T10:36:40.928Z,40.20
2018-11-04T10:38:43.034Z,44.47
2018-11-04T10:40:45.123Z,48.30
2018-11-04T10:42:47.226Z,43.20
2018-11-04T10:44:49.332Z,44.00
2018-11-04T10:46:51.438Z,43.70
2018-11-04T10:48:53.562Z,39.97
2018-11-04T10:50:55.773Z,43.47
2018-11-04T10:52:57.895Z,39.57
2018-11-04T10:55:00.040Z,41.00
2018-11-04T10:57:02.196Z,42.30
2018-11-04T10:59:04.594Z,43.17
2018-11-04T11:01:08.041Z,42.97
2018-11-04T11:03:10.194Z,41.90
2018-11-04T11:05:12.367Z,43.07
2018-11-04T11:07:14.670Z,42.47
2018-11-04T11:09:18.842Z,41.40
2018-11-04T11:11:20.958Z,41.23
2018-11-04T11:13:23.091Z,39.40
2018-11-04T11:15:25.183Z,40.00
2018-11-04T11:17:27.293Z,39.23
2018-11-04T11:19:29.439Z,36.87
2018-11-04T11:21:31.629Z,37.00
2018-11-04T11:23:33.808Z,41.20
2018-11-04T11:25:36.036Z,41.20
2018-11-04T11:27:38.207Z,40.10
2018-11-04T11:29:40.408Z,38.37
2018-11-04T11:31:42.638Z,38.57
2018-11-04T11:33:44.799Z,38.60
2018-11-04T11:35:46.984Z,40.07
2018-11-04T11:37:49.241Z,39.17
2018-11-04T11:39:51.450Z,38.60
2018-11-04T11:41:53.667Z,38.07
2018-11-04T11:43:55.902Z,35.63
2018-11-04T11:45:58.027Z,35.60
2018-11-04T11:48:00.539Z,35.93
2018-11-04T11:50:03.009Z,40.40
2018-11-04T11:52:05.158Z,37.30
2018-11-04T11:54:07.502Z,35.20
2018-11-04T11:56:09.647Z,36.23
2018-11-04T11:58:11.790Z,37.07
2018-11-04T12:00:13.943Z,35.93
2018-11-04T12:02:17.153Z,34.77
2018-11-04T12:04:21.399Z,38.00
2018-11-04T12:06:23.726Z,36.13
2018-11-04T12:08:25.863Z,30.70
2018-11-04T12:10:28.006Z,34.43
2018-11-04T12:12:30.220Z,37.10
2018-11-04T12:14:32.424Z,38.60
2018-11-04T12:16:34.558Z,35.77
2018-11-04T12:18:36.702Z,34.70
2018-11-04T12:20:38.919Z,34.77
2018-11-04T12:22:41.203Z,36.40
2018-11-04T12:24:43.395Z,34.07
2018-11-04T12:26:45.490Z,33.03
2018-11-04T12:28:47.617Z,34.40
2018-11-04T12:30:49.773Z,33.90
2018-11-04T12:32:52.005Z,31.00
2018-11-04T12:34:54.592Z,28.80
2018-11-04T12:36:56.847Z,31.80
2018-11-04T12:38:58.963Z,32.20
2018-11-04T12:41:01.154Z,31.60
2018-11-04T12:43:03.312Z,29.43
2018-11-04T12:45:06.743Z,30.00
2018-11-04T12:47:09.002Z,31.77
2018-11-04T12:49:11.223Z,30.30
2018-11-04T12:51:13.478Z,29.67
2018-11-04T12:53:15.862Z,29.70
2018-11-04T12:55:18.131Z,29.53
2018-11-04T12:57:20.357Z,30.47
2018-11-04T12:59:22.571Z,30.23
2018-11-04T13:01:24.778Z,30.50
2018-11-04T13:03:26.995Z,28.70
2018-11-04T13:05:29.165Z,28.87
2018-11-04T13:07:31.351Z,30.10
2018-11-04T13:09:33.541Z,27.03
2018-11-04T13:11:36.398Z,26.90
2018-11-04T13:13:38.591Z,26.33
2018-11-04T13:15:40.727Z,26.93
2018-11-04T13:17:43.407Z,26.70
2018-11-04T13:19:45.529Z,28.10
2018-11-04T13:21:47.666Z,29.23
2018-11-04T13:23:49.905Z,29.43
2018-11-04T13:25:52.100Z,26.97
2018-11-04T13:27:54.257Z,26.57
2018-11-04T13:29:56.433Z,24.90
2018-11-04T13:31:58.814Z,28.37
2018-11-04T13:34:01.045Z,26.80
2018-11-04T13:36:03.295Z,27.17
2018-11-04T13:38:05.425Z,25.80
2018-11-04T13:40:09.151Z,28.83
2018-11-04T13:42:11.337Z,27.97
2018-11-04T13:44:13.457Z,27.30
2018-11-04T13:46:15.671Z,27.50
2018-11-04T13:48:17.878Z,26.90
2018-11-04T13:50:20.022Z,28.33
2018-11-04T13:52:22.205Z,27.20
2018-11-04T13:54:24.376Z,28.10
2018-11-04T13:56:26.513Z,27.30
2018-11-04T13:58:28.717Z,26.40
2018-11-04T14:00:30.933Z,27.30
2018-11-04T14:02:33.106Z,28.80
2018-11-04T14:04:35.271Z,27.67
2018-11-04T14:06:37.407Z,26.90
2018-11-04T14:08:39.600Z,27.30
2018-11-04T14:10:41.828Z,26.30
2018-11-04T14:12:45.023Z,24.80
2018-11-04T14:14:47.235Z,28.83
2018-11-04T14:16:49.378Z,29.80
2018-11-04T14:18:51.550Z,27.37
2018-11-04T14:20:53.713Z,26.10
2018-11-04T14:22:55.855Z,26.57
2018-11-04T14:24:58.054Z,27.07
2018-11-04T14:27:00.205Z,25.00
2018-11-04T14:29:02.305Z,27.40
2018-11-04T14:31:04.544Z,25.37
2018-11-04T14:33:06.553Z,25.73
2018-11-04T14:35:09.594Z,25.87
2018-11-04T14:37:11.687Z,26.97
2018-11-04T14:39:13.770Z,25.60
2018-11-04T14:41:15.856Z,26.93
2018-11-04T14:43:17.955Z,27.13
2018-11-04T14:45:20.058Z,27.20
2018-11-04T14:47:22.149Z,25.47
2018-11-04T14:49:24.258Z,25.13
2018-11-04T14:51:26.397Z,27.10
2018-11-04T14:53:28.473Z,26.67
2018-11-04T14:55:30.571Z,25.07
2018-11-04T14:57:32.730Z,26.70
2018-11-04T14:59:34.886Z,25.27
2018-11-04T15:01:37.101Z,26.80
2018-11-04T15:03:39.150Z,26.00
2018-11-04T15:05:41.302Z,26.33
2018-11-04T15:07:43.403Z,27.50
2018-11-04T15:09:45.521Z,25.07
2018-11-04T15:11:47.665Z,25.77
2018-11-04T15:13:49.741Z,24.50
2018-11-04T15:15:51.841Z,24.97
2018-11-04T15:17:53.915Z,26.17
2018-11-04T15:19:55.989Z,24.83
2018-11-04T15:21:58.079Z,25.20
2018-11-04T15:24:00.141Z,26.10
2018-11-04T15:26:02.221Z,24.10
2018-11-04T15:28:04.322Z,24.30
2018-11-04T15:30:07.257Z,24.83
2018-11-04T15:32:09.326Z,23.97
2018-11-04T15:34:11.437Z,24.57
2018-11-04T15:36:13.479Z,25.10
2018-11-04T15:38:15.543Z,26.67
2018-11-04T15:40:17.633Z,27.67
2018-11-04T15:42:19.661Z,27.17
2018-11-04T15:44:21.738Z,27.23
2018-11-04T15:46:23.791Z,25.20
2018-11-04T15:48:25.863Z,26.37
2018-11-04T15:50:27.967Z,26.13
2018-11-04T15:52:30.046Z,26.27
2018-11-04T15:54:32.095Z,25.37
2018-11-04T15:56:34.215Z,26.87
2018-11-04T15:58:36.298Z,27.77
2018-11-04T16:00:38.383Z,29.30
2018-11-04T16:02:40.475Z,27.87
2018-11-04T16:04:45.122Z,28.10
2018-11-04T16:06:45.111Z,27.00
2018-11-04T16:08:47.151Z,25.70
2018-11-04T16:10:49.229Z,26.73
2018-11-04T16:12:51.282Z,26.93
2018-11-04T16:14:53.411Z,28.03
2018-11-04T16:16:55.466Z,27.20
2018-11-04T16:18:57.566Z,26.10
2018-11-04T16:20:59.725Z,28.77
2018-11-04T16:23:01.901Z,27.40
2018-11-04T16:25:04.595Z,27.80
2018-11-04T16:27:06.773Z,28.10
2018-11-04T16:29:08.956Z,29.00
2018-11-04T16:31:11.217Z,28.37
2018-11-04T16:35:43.986Z,27.53
2018-11-04T16:37:46.227Z,30.00
2018-11-04T16:39:48.231Z,29.10
2018-11-04T16:41:50.253Z,29.13
2018-11-04T16:43:52.383Z,29.40
2018-11-04T16:45:54.313Z,32.73
2018-11-04T16:47:56.345Z,33.40
2018-11-04T16:49:58.396Z,34.27
2018-11-04T16:52:00.417Z,33.20
2018-11-04T16:54:02.554Z,37.93
2018-11-04T16:56:05.505Z,32.87
2018-11-04T16:58:08.279Z,32.30
2018-11-04T17:00:10.970Z,33.00
2018-11-04T17:02:13.025Z,34.37
2018-11-04T17:04:15.356Z,35.50
2018-11-04T17:06:17.287Z,34.10
2018-11-04T17:08:19.780Z,32.30
2018-11-04T17:10:25.117Z,32.90
2018-11-04T17:12:27.377Z,35.00
2018-11-04T17:14:29.655Z,35.70
2018-11-04T17:16:31.934Z,35.60
2018-11-04T17:18:34.333Z,37.23
2018-11-04T17:20:36.580Z,35.10
2018-11-04T17:22:38.935Z,34.30
2018-11-04T17:24:41.089Z,36.73
2018-11-04T17:26:43.312Z,35.53
2018-11-04T17:28:45.505Z,37.30
2018-11-04T17:30:47.716Z,37.10
2018-11-04T17:32:49.896Z,36.47
2018-11-04T17:34:52.048Z,36.97
2018-11-04T17:36:54.330Z,34.20
2018-11-04T17:38:56.551Z,35.67
2018-11-04T17:40:58.786Z,36.27
2018-11-04T17:43:01.001Z,35.70
2018-11-04T17:45:03.260Z,36.07
2018-11-04T17:47:05.503Z,37.97
2018-11-04T17:49:08.375Z,37.20
2018-11-04T17:51:10.563Z,38.20
2018-11-04T17:53:12.777Z,35.40
2018-11-04T17:55:15.165Z,37.43
2018-11-04T17:57:17.459Z,36.80
2018-11-04T17:59:19.658Z,35.97
2018-11-04T18:01:21.954Z,38.10
2018-11-04T18:03:24.228Z,36.40
2018-11-04T18:05:26.484Z,36.37
2018-11-04T18:07:28.816Z,37.70
2018-11-04T18:09:31.081Z,34.90
2018-11-04T18:11:33.346Z,37.10
2018-11-04T18:13:35.615Z,35.20
2018-11-04T18:15:37.844Z,36.63
2018-11-04T18:17:40.229Z,38.33
2018-11-04T18:19:42.398Z,40.00
2018-11-04T18:21:47.354Z,40.60
2018-11-04T18:23:49.578Z,40.20
2018-11-04T18:25:51.819Z,39.17
2018-11-04T18:27:54.002Z,38.93
2018-11-04T18:29:56.203Z,38.47
2018-11-04T18:31:58.412Z,38.00
2018-11-04T18:34:00.682Z,40.50
2018-11-04T18:36:03.023Z,39.33
2018-11-04T18:38:05.316Z,40.37
2018-11-04T18:40:09.471Z,41.00
2018-11-04T18:42:11.673Z,38.63
2018-11-04T18:44:15.780Z,41.50
2018-11-04T18:46:17.939Z,39.43
2018-11-04T18:48:20.171Z,42.80
2018-11-04T18:50:22.402Z,42.53
2018-11-04T18:52:24.656Z,40.30
2018-11-04T18:54:26.779Z,41.50
2018-11-04T18:56:29.043Z,39.87
2018-11-04T18:58:31.278Z,39.53
2018-11-04T19:00:33.450Z,41.77
2018-11-04T19:02:35.653Z,41.27
2018-11-04T19:04:37.836Z,42.17
2018-11-04T19:06:40.057Z,43.37
2018-11-04T19:08:43.627Z,44.10
2018-11-04T19:10:45.879Z,46.57
2018-11-04T19:12:48.090Z,45.67
2018-11-04T19:14:52.264Z,45.53
2018-11-04T19:16:54.427Z,44.13
2018-11-04T19:18:56.651Z,45.00
2018-11-04T19:20:58.838Z,44.83
2018-11-04T19:23:01.065Z,42.53
2018-11-04T19:25:03.264Z,42.50
2018-11-04T19:27:05.384Z,43.73
2018-11-04T19:29:07.828Z,41.93
2018-11-04T19:31:11.084Z,44.23
2018-11-04T19:33:13.206Z,42.90
2018-11-04T19:35:16.113Z,44.10
2018-11-04T19:37:18.403Z,41.67
2018-11-04T19:39:20.638Z,42.77
2018-11-04T19:41:22.797Z,43.53
2018-11-04T19:43:24.961Z,41.20
2018-11-04T19:45:27.202Z,41.97
2018-11-04T19:47:29.347Z,42.43
2018-11-04T19:49:31.510Z,41.57
2018-11-04T19:51:33.859Z,42.93
2018-11-04T19:53:36.363Z,36.00
2018-11-04T19:55:38.908Z,39.30
2018-11-04T19:57:41.227Z,35.97
2018-11-04T19:59:43.431Z,30.17
2018-11-04T20:01:45.613Z,31.80
2018-11-04T20:03:47.787Z,29.37
2018-11-04T20:05:50.175Z,31.67
2018-11-04T20:07:52.311Z,30.63
2018-11-04T20:09:54.554Z,28.87
2018-11-04T20:11:56.965Z,27.97
2018-11-04T20:14:05.073Z,28.20
2018-11-04T20:16:07.260Z,28.30
2018-11-04T20:18:15.438Z,29.20
2018-11-04T20:20:22.245Z,28.97
2018-11-04T20:22:24.370Z,33.43
2018-11-04T20:24:32.170Z,35.00
2018-11-04T20:26:34.404Z,32.57
2018-11-04T20:28:36.547Z,31.07
2018-11-04T20:30:38.711Z,32.20
2018-11-04T20:32:46.462Z,28.67
2018-11-04T20:34:48.731Z,29.90
2018-11-04T20:36:51.170Z,28.10
2018-11-04T20:38:58.958Z,28.03
2018-11-04T20:41:06.796Z,28.53
2018-11-04T20:43:08.859Z,28.17
2018-11-04T20:45:11.143Z,29.13
2018-11-04T20:47:13.568Z,28.83
2018-11-04T20:49:21.373Z,29.83
2018-11-04T20:51:23.445Z,29.00
2018-11-04T20:53:25.478Z,27.53
2018-11-04T20:55:32.144Z,29.37
2018-11-04T20:57:35.349Z,29.43
2018-11-04T20:59:37.344Z,31.10
2018-11-04T21:01:39.406Z,29.67
2018-11-04T21:03:41.896Z,31.10
2018-11-04T21:05:43.973Z,32.10
2018-11-04T21:07:46.046Z,31.07
2018-11-04T21:09:48.127Z,31.00
2018-11-04T21:11:50.147Z,31.77
2018-11-04T21:13:52.190Z,33.13
2018-11-04T21:15:54.281Z,34.30
2018-11-04T21:17:56.305Z,34.13
2018-11-04T21:19:58.365Z,36.10
2018-11-04T21:22:00.398Z,33.90
2018-11-04T21:24:02.431Z,34.17
2018-11-04T21:26:04.638Z,34.67
2018-11-04T21:28:06.762Z,36.47
2018-11-04T21:30:09.966Z,35.67
2018-11-04T21:32:12.030Z,33.77
2018-11-04T21:34:14.174Z,30.80
2018-11-04T21:36:19.185Z,32.73
2018-11-04T21:38:21.189Z,30.60
2018-11-04T21:40:23.317Z,33.00
2018-11-04T21:42:25.441Z,30.47
2018-11-04T21:44:27.517Z,29.87
2018-11-04T21:46:29.451Z,28.00
2018-11-04T21:48:31.493Z,29.53
2018-11-04T21:50:33.574Z,30.60
2018-11-04T21:52:35.729Z,30.40
2018-11-04T21:54:37.771Z,28.50
2018-11-04T21:56:39.968Z,29.57
2018-11-04T21:58:41.903Z,28.27
2018-11-04T22:00:43.974Z,29.43
2018-11-04T22:02:46.301Z,29.20
2018-11-04T22:04:48.252Z,28.63
2018-11-04T22:06:50.189Z,29.13
2018-11-04T22:08:52.240Z,26.40
2018-11-04T22:10:54.282Z,26.47
2018-11-04T22:12:56.323Z,26.13
2018-11-04T22:14:58.373Z,26.50
2018-11-04T22:17:00.442Z,27.93
2018-11-04T22:19:02.504Z,26.90
2018-11-04T22:21:04.617Z,26.50
2018-11-04T22:23:06.714Z,25.83
2018-11-04T22:25:09.725Z,26.03
2018-11-04T22:27:11.786Z,24.23
2018-11-04T22:29:13.829Z,25.60
2018-11-04T22:31:15.877Z,26.60
2018-11-04T22:33:17.907Z,26.33
2018-11-04T22:35:19.971Z,26.70
2018-11-04T22:37:22.026Z,26.70
2018-11-04T22:39:24.064Z,24.97
2018-11-04T22:41:26.174Z,26.43
2018-11-04T22:43:28.213Z,24.73
2018-11-04T22:45:30.306Z,25.23
2018-11-04T22:47:32.355Z,24.47
2018-11-04T22:49:34.398Z,25.23
2018-11-04T22:51:36.453Z,26.00
2018-11-04T22:53:38.513Z,25.40
2018-11-04T22:55:40.625Z,25.90
2018-11-04T22:57:43.219Z,27.00
2018-11-04T22:59:45.251Z,23.67
2018-11-04T23:01:47.299Z,23.30
2018-11-04T23:03:49.345Z,24.50
2018-11-04T23:05:51.395Z,24.63
2018-11-04T23:07:53.443Z,23.27
2018-11-04T23:09:55.489Z,24.57
2018-11-04T23:11:57.530Z,24.50
2018-11-04T23:13:59.589Z,21.80
2018-11-04T23:16:01.682Z,24.73
2018-11-04T23:18:03.818Z,25.30
2018-11-04T23:20:06.355Z,24.10
2018-11-04T23:22:08.386Z,24.87
2018-11-04T23:24:10.426Z,24.70
2018-11-04T23:26:12.486Z,23.90
2018-11-04T23:28:14.543Z,22.63
2018-11-04T23:30:17.785Z,28.30
2018-11-04T23:32:19.811Z,25.13
2018-11-04T23:34:21.857Z,23.97
2018-11-04T23:36:23.901Z,25.77
2018-11-04T23:38:25.934Z,27.50
2018-11-04T23:40:28.013Z,26.30
2018-11-04T23:42:30.084Z,26.80
2018-11-04T23:44:32.126Z,25.23
2018-11-04T23:46:34.171Z,27.57
2018-11-04T23:48:36.206Z,26.83
2018-11-04T23:50:38.277Z,25.60
2018-11-04T23:52:40.469Z,26.33
2018-11-04T23:54:42.543Z,25.23
2018-11-04T23:56:44.641Z,25.03
2018-11-04T23:58:46.692Z,27.57
